Time;durP1;ratioP1;P1;durP2;ratioP2;P2;SDS_P1;SDS_P2;PMS_P1;PMS_P2;Temp;Humidity;BMP_temperature;BMP_pressure;BME280_temperature;BME280_humidity;BME280_pressure;Samples;Min_cycle;Max_cycle;Signal;HPM_P1;HPM_P2
2024/01/02 00:01:00;;;;;;;6.60;3.50;;;;;;;7.20;56.82;99507.84;7684434;32;39693;-86
2024/01/02 00:05:16;;;;;;;8.55;3.97;;;;;;;7.36;56.38;99504.16;7684534;32;39054;-85
2024/01/02 00:09:33;;;;;;;10.07;3.70;;;;;;;7.46;56.07;99504.25;7703387;32;37251;-85
2024/01/02 00:13:49;;;;;;;5.53;3.33;;;;;;;7.39;56.13;99505.56;7711092;32;39421;-85
2024/01/02 00:18:05;;;;;;;7.62;3.50;;;;;;;7.51;55.78;99508.91;7709382;32;40179;-85
2024/01/02 00:22:22;;;;;;;5.43;3.15;;;;;;;7.52;55.58;99500.53;7683131;32;37755;-85
2024/01/02 00:26:39;;;;;;;7.28;3.20;;;;;;;7.46;55.61;99509.69;7684238;32;37743;-85
2024/01/02 00:30:56;;;;;;;7.05;3.30;;;;;;;7.22;56.13;99513.81;7684106;32;39380;-85
2024/01/02 00:35:12;;;;;;;6.18;3.30;;;;;;;7.33;55.75;99504.72;7684142;32;39768;-85
2024/01/02 00:39:29;;;;;;;5.20;3.28;;;;;;;7.24;56.06;99514.38;7683941;32;37761;-86
2024/01/02 00:43:45;;;;;;;7.60;3.37;;;;;;;7.19;56.23;99514.31;7694023;32;37140;-85
2024/01/02 00:48:01;;;;;;;5.50;2.87;;;;;;;6.90;57.15;99528.13;7710261;32;41069;-84
2024/01/02 00:52:18;;;;;;;5.43;3.30;;;;;;;7.03;56.70;99518.78;7710391;32;39747;-85
2024/01/02 00:56:34;;;;;;;6.90;3.40;;;;;;;7.17;56.44;99530.03;7699736;32;37619;-86
2024/01/02 01:00:50;;;;;;;6.47;3.28;;;;;;;7.09;56.34;99524.00;7683285;32;37801;-84
2024/01/02 01:05:07;;;;;;;6.00;3.47;;;;;;;7.01;56.86;99529.88;7683472;32;39390;-85
2024/01/02 01:09:24;;;;;;;6.20;3.47;;;;;;;6.80;57.53;99536.13;7683149;32;39865;-87
2024/01/02 01:13:40;;;;;;;6.10;3.22;;;;;;;7.04;58.27;99525.84;7683134;32;37811;-85
2024/01/02 01:17:56;;;;;;;10.65;4.53;;;;;;;6.86;56.92;99532.41;7683091;32;36807;-86
2024/01/02 01:22:13;;;;;;;7.60;3.28;;;;;;;6.49;58.31;99522.22;7682931;32;39307;-86
2024/01/02 01:26:29;;;;;;;7.97;3.67;;;;;;;6.65;57.67;99524.03;7682787;32;40876;-84
2024/01/02 01:30:45;;;;;;;6.62;3.78;;;;;;;6.68;57.70;99520.81;7682504;32;38634;-85
2024/01/02 01:35:03;;;;;;;6.75;3.85;;;;;;;6.72;57.26;99519.22;7685955;32;37247;-85
2024/01/02 01:39:20;;;;;;;7.40;3.53;;;;;;;6.16;59.06;99507.69;7686340;32;38698;-85
2024/01/02 01:43:36;;;;;;;8.70;3.75;;;;;;;6.16;58.80;99510.41;7697243;32;40795;-86
2024/01/02 01:47:53;;;;;;;6.10;3.62;;;;;;;6.47;57.95;99508.09;7712704;32;38511;-86
2024/01/02 01:52:10;;;;;;;7.57;3.47;;;;;;;6.43;58.01;99506.97;7688340;32;37917;-84
2024/01/02 01:56:26;;;;;;;6.53;3.62;;;;;;;6.52;57.44;99518.97;7686119;32;39174;-85
2024/01/02 02:00:43;;;;;;;7.82;3.90;;;;;;;6.82;56.66;99515.03;7686153;32;40787;-85
2024/01/02 02:05:01;;;;;;;5.03;3.47;;;;;;;6.92;56.27;99520.56;7685941;32;38580;-85
2024/01/02 02:09:17;;;;;;;9.10;3.70;;;;;;;6.74;56.80;99519.81;7684711;32;37147;-84
2024/01/02 02:13:35;;;;;;;7.45;3.83;;;;;;;6.61;57.00;99522.91;7685813;32;39324;-85
2024/01/02 02:17:51;;;;;;;7.00;3.65;;;;;;;6.82;56.28;99520.44;7684542;32;40003;-84
2024/01/02 02:22:08;;;;;;;7.87;3.70;;;;;;;6.80;56.55;99512.56;7685733;32;38725;-85
2024/01/02 02:26:24;;;;;;;7.78;3.50;;;;;;;6.75;56.52;99509.78;7685823;32;36959;-85
2024/01/02 02:30:41;;;;;;;7.12;3.80;;;;;;;6.71;56.68;99509.47;7685628;32;40111;-84
2024/01/02 02:34:57;;;;;;;5.57;3.50;;;;;;;6.66;56.70;99511.31;7685576;32;40041;-84
2024/01/02 02:39:13;;;;;;;5.75;3.75;;;;;;;6.66;56.49;99509.41;7685538;32;38768;-85
2024/01/02 02:43:29;;;;;;;7.43;3.78;;;;;;;6.49;56.74;99506.78;7696334;32;37050;-85
2024/01/02 02:47:46;;;;;;;5.28;3.80;;;;;;;6.67;56.19;99508.34;7712151;32;39310;-85
2024/01/02 02:52:02;;;;;;;8.15;3.83;;;;;;;6.67;56.02;99511.03;7712028;32;39687;-86
2024/01/02 02:56:19;;;;;;;6.47;3.50;;;;;;;6.50;56.62;99519.25;7711885;32;37773;-85
2024/01/02 03:00:35;;;;;;;7.30;3.90;;;;;;;6.36;56.92;99507.13;7711747;32;37371;-85
2024/01/02 03:04:52;;;;;;;9.60;3.83;;;;;;;6.68;56.24;99506.47;7711743;32;40147;-85
2024/01/02 03:09:08;;;;;;;6.47;3.50;;;;;;;6.54;56.15;99496.00;7711472;32;40499;-85
2024/01/02 03:13:25;;;;;;;8.13;3.28;;;;;;;6.61;56.13;99508.56;7711760;32;38517;-85
2024/01/02 03:17:41;;;;;;;10.10;4.07;;;;;;;6.56;56.30;99501.97;7711782;32;37130;-85
2024/01/02 03:21:58;;;;;;;6.03;3.58;;;;;;;6.37;56.62;99504.19;7710329;32;40215;-85
2024/01/02 03:26:14;;;;;;;7.95;3.22;;;;;;;6.45;56.21;99504.81;7711872;32;39698;-86
2024/01/02 03:30:31;;;;;;;7.47;4.12;;;;;;;6.26;57.04;99505.13;7697920;32;38468;-84
2024/01/02 03:34:50;;;;;;;4.82;3.12;;;;;;;6.37;56.44;99506.09;7711682;32;37887;-84
2024/01/02 03:39:06;;;;;;;5.90;3.33;;;;;;;6.49;56.26;99498.66;7710497;32;39124;-86
2024/01/02 03:43:23;;;;;;;6.05;3.50;;;;;;;6.64;55.73;99487.19;7711495;32;40862;-86
2024/01/02 03:47:39;;;;;;;7.85;3.20;;;;;;;6.49;56.01;99484.31;7711498;32;37919;-84
2024/01/02 03:51:56;;;;;;;8.20;3.62;;;;;;;6.55;55.53;99481.41;7711531;32;37895;-85
2024/01/02 03:56:15;;;;;;;9.35;3.60;;;;;;;6.63;55.46;99473.91;7711180;32;39144;-85
2024/01/02 04:00:33;;;;;;;8.98;4.97;;;;;;;6.48;55.88;99480.75;7711144;32;39933;-85
2024/01/02 04:04:50;;;;;;;9.38;4.60;;;;;;;6.55;55.72;99476.00;7687757;32;37905;-85
2024/01/02 04:09:06;;;;;;;7.57;3.60;;;;;;;6.58;55.49;99489.00;7684533;32;36803;-85
2024/01/02 04:13:24;;;;;;;8.63;4.50;;;;;;;6.51;55.94;99493.78;7685129;32;40151;-85
2024/01/02 04:17:40;;;;;;;9.55;4.70;;;;;;;6.73;55.12;99495.69;7684517;32;39896;-85
2024/01/02 04:21:56;;;;;;;10.02;5.15;;;;;;;6.55;55.56;99500.38;7684158;32;37605;-86
2024/01/02 04:26:12;;;;;;;8.40;5.25;;;;;;;6.43;56.02;99501.53;7684224;32;37399;-87
2024/01/02 04:30:28;;;;;;;7.28;4.85;;;;;;;6.25;56.63;99505.37;7684136;32;39313;-85
2024/01/02 04:34:45;;;;;;;10.35;4.62;;;;;;;6.23;56.58;99502.94;7684042;32;39987;-86
2024/01/02 04:39:03;;;;;;;6.15;4.10;;;;;;;6.33;56.55;99494.94;7683870;32;38627;-84
2024/01/02 04:43:20;;;;;;;8.65;4.12;;;;;;;6.31;56.56;99483.53;7683950;32;37024;-86
2024/01/02 04:47:36;;;;;;;8.85;3.97;;;;;;;6.32;56.67;99490.56;7683753;32;39297;-85
2024/01/02 04:51:53;;;;;;;6.37;3.37;;;;;;;6.12;57.31;99484.88;7683609;32;40864;-85
2024/01/02 04:56:09;;;;;;;6.53;3.90;;;;;;;6.30;56.68;99475.66;7692219;32;37902;-85
2024/01/02 05:00:25;;;;;;;6.55;3.90;;;;;;;6.35;56.66;99484.66;7710065;32;37228;-85
2024/01/02 05:04:42;;;;;;;6.65;4.03;;;;;;;6.45;56.54;99480.44;7709968;32;40070;-85
2024/01/02 05:08:58;;;;;;;8.20;4.12;;;;;;;6.05;57.78;99479.66;7712043;32;39917;-85
2024/01/02 05:13:14;;;;;;;5.10;3.45;;;;;;;6.33;57.13;99469.72;7713266;32;37575;-84
2024/01/02 05:17:30;;;;;;;9.30;3.90;;;;;;;6.21;57.43;99469.88;7713276;32;37608;-85
2024/01/02 05:21:47;;;;;;;5.80;3.95;;;;;;;6.33;57.09;99470.56;7707998;32;39331;-85
2024/01/02 05:26:03;;;;;;;7.45;4.43;;;;;;;6.26;57.21;99471.81;7686368;32;41001;-84
2024/01/02 05:30:19;;;;;;;9.80;5.12;;;;;;;6.18;57.58;99467.66;7686296;32;37849;-85
2024/01/02 05:34:36;;;;;;;7.87;4.22;;;;;;;6.34;57.14;99461.34;7686971;32;37004;-84
2024/01/02 05:38:52;;;;;;;8.80;4.40;;;;;;;6.01;57.98;99462.28;7686388;32;39395;-85
2024/01/02 05:43:09;;;;;;;29.92;10.07;;;;;;;6.23;57.51;99465.03;7705305;32;39658;-85
2024/01/02 05:47:25;;;;;;;18.60;7.30;;;;;;;6.05;57.88;99468.81;7712717;32;37893;-85
2024/01/02 05:51:41;;;;;;;12.82;5.47;;;;;;;6.23;57.44;99465.03;7712776;32;38188;-85
2024/01/02 05:55:58;;;;;;;28.17;9.82;;;;;;;6.12;57.62;99474.91;7692614;32;39297;-84
2024/01/02 06:00:14;;;;;;;19.35;7.93;;;;;;;6.30;56.97;99468.34;7686161;32;40647;-84
2024/01/02 06:04:30;;;;;;;11.45;5.05;;;;;;;6.21;56.76;99472.59;7685821;32;37709;-84
2024/01/02 06:08:46;;;;;;;10.00;4.80;;;;;;;6.16;56.84;99465.19;7684700;32;37848;-85
2024/01/02 06:13:03;;;;;;;9.52;4.60;;;;;;;6.25;56.42;99470.19;7685882;32;40105;-84
2024/01/02 06:17:19;;;;;;;10.18;4.32;;;;;;;6.06;56.67;99473.19;7685789;32;40000;-84
2024/01/02 06:21:35;;;;;;;7.93;4.68;;;;;;;5.92;56.95;99475.41;7685829;32;39590;-85
2024/01/02 06:25:51;;;;;;;5.65;3.78;;;;;;;5.85;57.25;99480.16;7685759;32;37127;-85
2024/01/02 06:30:08;;;;;;;7.28;4.00;;;;;;;6.01;56.80;99478.53;7685579;32;39353;-85
2024/01/02 06:34:24;;;;;;;6.85;3.58;;;;;;;5.71;57.64;99474.28;7695915;32;39731;-86
2024/01/02 06:38:41;;;;;;;6.55;4.10;;;;;;;5.88;57.11;99460.75;7712245;32;38535;-85
2024/01/02 06:42:57;;;;;;;3.95;3.47;;;;;;;5.82;57.33;99461.72;7712208;32;37778;-85
2024/01/02 06:47:13;;;;;;;7.87;3.37;;;;;;;5.49;58.38;99463.41;7710277;32;39386;-85
2024/01/02 06:51:29;;;;;;;9.38;3.70;;;;;;;5.64;58.09;99463.62;7685399;32;39991;-85
2024/01/02 06:55:45;;;;;;;12.73;3.75;;;;;;;5.89;57.13;99462.34;7686099;32;37857;-86
2024/01/02 07:00:02;;;;;;;7.78;4.20;;;;;;;5.69;57.69;99467.47;7685394;32;37086;-87
2024/01/02 07:04:18;;;;;;;11.50;4.18;;;;;;;5.63;57.99;99472.81;7685255;32;39143;-86
2024/01/02 07:08:34;;;;;;;7.35;3.67;;;;;;;5.76;57.63;99471.66;7685280;32;40565;-86
2024/01/02 07:12:50;;;;;;;7.10;3.62;;;;;;;5.86;57.50;99470.16;7685079;32;38356;-86
2024/01/02 07:17:07;;;;;;;6.87;4.00;;;;;;;5.59;58.58;99474.38;7685250;32;37988;-87
2024/01/02 07:21:23;;;;;;;6.57;3.67;;;;;;;5.81;58.13;99479.00;7685208;32;40348;-86
2024/01/02 07:25:39;;;;;;;7.35;3.60;;;;;;;5.67;58.54;99472.31;7685216;32;39908;-85
2024/01/02 07:29:56;;;;;;;6.12;3.40;;;;;;;5.50;59.22;99483.94;7684551;32;37796;-75
2024/01/02 07:34:13;;;;;;;9.27;3.90;;;;;;;5.66;67.25;99485.03;7699059;32;36816;-86
2024/01/02 07:38:30;;;;;;;5.72;3.58;;;;;;;6.22;63.05;99474.19;7714543;32;40057;-87
2024/01/02 07:42:46;;;;;;;9.13;3.65;;;;;;;6.36;59.85;99459.25;7711547;32;39912;-85
2024/01/02 07:47:03;;;;;;;7.15;3.85;;;;;;;6.33;58.38;99459.75;7711511;32;37942;-89
2024/01/02 07:51:19;;;;;;;15.45;6.57;;;;;;;6.41;58.21;99461.16;7701037;32;37793;-86
2024/01/02 07:55:35;;;;;;;9.20;6.10;;;;;;;5.72;58.59;99464.28;7735907;32;40094;-89
2024/01/02 07:59:52;;;;;;;11.15;5.78;;;;;;;6.21;57.78;99459.03;7684696;32;39940;-88
2024/01/02 08:04:08;;;;;;;7.87;4.93;;;;;;;6.54;56.88;99454.56;7684547;32;38458;-81
2024/01/02 08:08:24;;;;;;;9.55;4.87;;;;;;;6.47;57.13;99448.50;7694249;32;37067;-78
2024/01/02 08:12:41;;;;;;;10.85;5.80;;;;;;;6.66;56.94;99441.69;7737815;32;40038;-79
2024/01/02 08:16:57;;;;;;;8.93;5.53;;;;;;;6.86;56.52;99426.72;7737677;32;40007;-82
2024/01/02 08:21:13;;;;;;;12.48;5.93;;;;;;;6.30;59.44;99444.00;7737689;32;38785;-79
2024/01/02 08:25:29;;;;;;;11.65;6.12;;;;;;;6.06;58.65;99443.41;7723903;32;37047;-80
2024/01/02 08:29:46;;;;;;;11.93;6.18;;;;;;;5.97;62.23;99445.75;7737712;32;40126;-79
2024/01/02 08:34:04;;;;;;;11.85;5.93;;;;;;;6.34;59.82;99445.13;7715886;32;40647;-79
2024/01/02 08:38:21;;;;;;;9.50;5.50;;;;;;;6.78;58.36;99444.28;7710489;32;38487;-80
2024/01/02 08:42:37;;;;;;;10.23;5.72;;;;;;;7.18;57.39;99451.16;7709321;32;37348;-79
2024/01/02 08:46:53;;;;;;;9.88;5.18;;;;;;;7.51;56.52;99443.81;7696817;32;39342;-79
2024/01/02 08:51:10;;;;;;;10.55;5.50;;;;;;;7.73;55.23;99441.00;7693161;32;40114;-79
2024/01/02 08:55:26;;;;;;;8.25;5.03;;;;;;;7.37;55.67;99438.03;7682380;32;38565;-79
2024/01/02 08:59:42;;;;;;;9.32;4.72;;;;;;;8.24;54.21;99422.28;7683415;32;37122;-79
2024/01/02 09:03:59;;;;;;;10.90;4.62;;;;;;;8.23;54.21;99411.66;7683297;32;40038;-83
2024/01/02 09:08:19;;;;;;;7.72;4.53;;;;;;;8.53;56.30;99413.69;7683336;32;40003;-79
2024/01/02 09:12:36;;;;;;;11.18;4.70;;;;;;;9.10;53.94;99401.00;7683123;32;37794;-79
2024/01/02 09:16:52;;;;;;;11.80;5.43;;;;;;;9.06;54.81;99388.25;7683106;32;37096;-80
2024/01/02 09:21:08;;;;;;;8.52;5.10;;;;;;;9.16;52.51;99388.25;7682810;32;39372;-79
2024/01/02 09:25:30;;;;;;;9.40;5.12;;;;;;;8.76;52.65;99373.50;7682883;32;40698;-79
2024/01/02 09:29:46;;;;;;;14.18;5.10;;;;;;;8.34;52.88;99372.59;7682743;32;39174;-78
2024/01/02 09:34:03;;;;;;;9.65;5.37;;;;;;;8.35;54.28;99378.84;7682804;32;37904;-79
2024/01/02 09:38:19;;;;;;;21.58;8.23;;;;;;;8.14;53.59;99373.34;7682650;32;39468;-79
2024/01/02 09:42:59;;;;;;;12.52;6.25;;;;;;;8.26;55.40;99364.94;7681403;32;39951;-79
2024/01/02 09:47:31;;;;;;;10.98;6.55;;;;;;;8.42;53.80;99365.84;7682436;32;38572;-79
2024/01/02 09:51:57;;;;;;;14.77;7.77;;;;;;;8.24;54.38;99370.66;7696480;32;37121;-79
2024/01/02 09:56:19;;;;;;;12.60;7.72;;;;;;;7.25;57.31;99375.03;7712255;32;40205;-79
2024/01/02 10:00:47;;;;;;;15.13;7.87;;;;;;;7.82;56.20;99376.19;7712505;32;40163;-79
2024/01/02 10:05:22;;;;;;;16.20;8.57;;;;;;;7.90;55.04;99367.53;7712567;32;37766;-79
2024/01/02 10:10:17;;;;;;;16.70;8.38;;;;;;;7.75;55.93;99354.72;7712686;32;37433;-80
2024/01/02 10:14:50;;;;;;;18.45;9.73;;;;;;;7.57;56.18;99347.00;7636645;32;39212;-80
2024/01/02 10:19:31;;;;;;;15.20;8.15;;;;;;;7.44;57.10;99351.00;7699666;32;39836;-80
2024/01/02 10:23:53;;;;;;;15.38;9.48;;;;;;;7.37;56.53;99337.69;7712354;32;38643;-80
2024/01/02 10:28:14;;;;;;;17.90;9.27;;;;;;;7.26;57.10;99347.66;7712268;32;37846;-79
2024/01/02 10:32:42;;;;;;;16.35;8.82;;;;;;;7.47;56.64;99332.31;7698203;32;39609;-80
2024/01/02 10:37:03;;;;;;;15.80;8.95;;;;;;;6.92;58.18;99322.72;7686948;32;40800;-80
2024/01/02 10:41:30;;;;;;;17.37;8.82;;;;;;;7.34;57.23;99311.88;7690056;32;38648;-80
2024/01/02 10:46:06;;;;;;;16.20;8.93;;;;;;;7.42;57.29;99307.87;7704554;32;35873;-80
2024/01/02 10:50:30;;;;;;;15.25;8.02;;;;;;;7.54;57.16;99302.25;7708562;32;39461;-80
2024/01/02 10:55:23;;;;;;;18.85;9.93;;;;;;;8.24;55.24;99289.19;7688056;32;40664;-81
2024/01/02 10:59:39;;;;;;;18.80;10.03;;;;;;;8.22;55.94;99285.09;7688002;32;37838;-81
2024/01/02 11:04:08;;;;;;;14.82;9.05;;;;;;;8.52;54.79;99267.25;7693075;32;37396;-80
2024/01/02 11:08:37;;;;;;;14.02;8.27;;;;;;;9.02;53.44;99258.25;7709629;32;40041;-81
2024/01/02 11:13:06;;;;;;;13.52;8.18;;;;;;;9.68;52.34;99245.53;7709756;32;40694;-81
2024/01/02 11:17:31;;;;;;;13.57;7.95;;;;;;;10.00;50.54;99247.00;7690419;32;37871;-81
2024/01/02 11:22:08;;;;;;;12.20;7.82;;;;;;;9.99;49.87;99234.50;7684186;32;37108;-81
2024/01/02 11:26:27;;;;;;;11.15;6.12;;;;;;;9.94;49.97;99245.41;7693387;32;39149;-80
2024/01/02 11:30:44;;;;;;;11.55;5.97;;;;;;;10.21;48.75;99236.81;7691557;32;40794;-81
2024/01/02 11:35:06;;;;;;;8.80;5.97;;;;;;;9.59;48.91;99233.63;7699146;32;37898;-80
2024/01/02 11:39:26;;;;;;;13.70;6.78;;;;;;;10.07;47.79;99222.19;7711808;32;37037;-81
2024/01/02 11:43:53;;;;;;;8.35;5.32;;;;;;;10.09;48.37;99214.53;7690845;32;39150;-82
2024/01/02 11:48:34;;;;;;;7.57;4.50;;;;;;;10.12;47.49;99209.37;7690707;32;40773;-81
2024/01/02 11:53:06;;;;;;;11.07;5.50;;;;;;;9.96;46.17;99194.22;7699433;32;39230;-80
2024/01/02 11:57:59;;;;;;;13.45;7.43;;;;;;;10.01;46.65;99187.94;7684764;32;36898;-80
2024/01/02 12:02:42;;;;;;;8.70;5.20;;;;;;;9.79;50.07;99172.81;7657593;32;39222;-81
2024/01/02 12:07:10;;;;;;;8.20;4.43;;;;;;;9.76;47.41;99157.88;7656424;32;39761;-80
2024/01/02 12:11:29;;;;;;;12.57;4.68;;;;;;;9.82;46.16;99153.19;7684448;32;38417;-80
2024/01/02 12:15:54;;;;;;;7.32;4.18;;;;;;;10.07;45.54;99151.38;7670977;32;37942;-80
2024/01/02 12:20:11;;;;;;;7.30;4.32;;;;;;;10.24;45.05;99142.81;7684274;32;39375;-80
2024/01/02 12:24:28;;;;;;;7.40;3.55;;;;;;;9.60;45.73;99137.25;7684198;32;39913;-80
2024/01/02 12:28:45;;;;;;;6.95;3.58;;;;;;;9.58;45.80;99125.84;7670649;32;38604;-80
2024/01/02 12:33:16;;;;;;;6.78;3.72;;;;;;;9.93;44.92;99118.53;7670354;32;37858;-80
2024/01/02 12:37:37;;;;;;;5.68;3.50;;;;;;;9.46;45.50;99109.87;7684109;32;39180;-80
2024/01/02 12:41:55;;;;;;;5.15;3.10;;;;;;;9.15;46.73;99098.34;7683867;32;40938;-79
2024/01/02 12:46:19;;;;;;;2.87;2.40;;;;;;;9.03;46.00;99107.63;7670579;32;37998;-80
2024/01/02 12:50:38;;;;;;;4.30;2.45;;;;;;;8.76;47.49;99099.00;7683721;32;37096;-80
2024/01/02 12:54:56;;;;;;;7.57;3.80;;;;;;;8.82;48.27;99089.78;7683729;32;39408;-80
2024/01/02 12:59:12;;;;;;;4.55;3.00;;;;;;;9.01;48.69;99085.34;7683573;32;40588;-80
2024/01/02 13:03:29;;;;;;;5.30;3.20;;;;;;;9.06;46.60;99070.91;7683123;32;38663;-80
2024/01/02 13:07:45;;;;;;;13.82;6.70;;;;;;;9.33;46.28;99054.19;7690599;32;37444;-80
2024/01/02 13:12:02;;;;;;;18.55;8.20;;;;;;;9.77;47.91;99056.03;7698725;32;39316;-79
2024/01/02 13:16:19;;;;;;;15.80;7.53;;;;;;;9.25;49.58;99043.09;7681968;32;40001;-81
2024/01/02 13:20:36;;;;;;;16.33;8.60;;;;;;;9.39;49.98;99027.75;7682901;32;38718;-80
2024/01/02 13:24:54;;;;;;;14.38;7.62;;;;;;;9.50;58.52;99021.16;7684854;32;38346;-80
2024/01/02 13:29:12;;;;;;;16.27;8.93;;;;;;;9.47;50.67;99023.59;7684304;32;38443;-80
2024/01/02 13:33:42;;;;;;;18.60;9.50;;;;;;;9.21;51.09;99015.63;7686214;32;39884;-80
2024/01/02 13:38:04;;;;;;;16.23;9.65;;;;;;;9.07;51.63;99006.47;7686145;32;38665;-78
2024/01/02 13:42:29;;;;;;;18.92;10.68;;;;;;;8.56;53.26;99011.06;7681984;32;36213;-79
2024/01/02 13:46:48;;;;;;;15.15;8.88;;;;;;;8.31;53.61;98992.91;7685898;32;39416;-79
2024/01/02 13:51:08;;;;;;;18.52;10.55;;;;;;;8.13;54.47;98986.16;7685924;32;39923;-81
2024/01/02 13:55:28;;;;;;;16.37;8.63;;;;;;;7.46;56.38;98980.81;7686034;32;38617;-80
2024/01/02 13:59:46;;;;;;;16.10;9.23;;;;;;;7.90;55.15;98961.25;7688740;32;36837;-80
2024/01/02 14:04:04;;;;;;;11.00;6.75;;;;;;;7.86;55.54;98975.62;7688985;32;39940;-80
2024/01/02 14:08:21;;;;;;;10.50;5.70;;;;;;;7.62;55.34;98991.66;7731081;32;38913;-80
2024/01/02 14:12:38;;;;;;;18.08;8.82;;;;;;;8.02;52.53;98968.25;7685686;32;38622;-80
2024/01/02 14:17:05;;;;;;;15.25;7.97;;;;;;;7.94;54.94;98949.84;7689018;32;37107;-80
2024/01/02 14:21:23;;;;;;;10.13;5.28;;;;;;;8.02;54.58;98935.69;7697619;32;40188;-81
2024/01/02 14:26:00;;;;;;;8.88;4.37;;;;;;;8.24;53.30;98944.34;7706899;32;40746;-81
2024/01/02 14:30:32;;;;;;;9.85;4.68;;;;;;;8.15;51.14;98947.88;7712170;32;37941;-80
2024/01/02 14:35:08;;;;;;;8.43;4.37;;;;;;;8.60;51.15;98940.66;7712393;32;38027;-80
2024/01/02 14:39:49;;;;;;;12.68;6.60;;;;;;;8.49;50.32;98929.03;7687063;32;40112;-80
2024/01/02 14:44:27;;;;;;;8.73;3.67;;;;;;;8.23;51.44;98920.16;7685582;32;40718;-81
2024/01/02 14:48:45;;;;;;;4.65;3.00;;;;;;;8.69;50.77;98916.44;7685462;32;37883;-80
2024/01/02 14:53:48;;;;;;;6.05;3.30;;;;;;;8.50;51.02;98908.12;7685436;32;37289;-81
2024/01/02 14:58:35;;;;;;;7.80;3.72;;;;;;;8.60;51.78;98914.31;7664282;32;40040;-82
2024/01/02 15:03:11;;;;;;;5.62;3.17;;;;;;;9.18;50.13;98907.41;7684785;32;39931;-81
2024/01/02 15:07:33;;;;;;;5.37;2.90;;;;;;;9.13;50.77;98907.47;7684988;32;37898;-81
2024/01/02 15:12:07;;;;;;;7.97;4.15;;;;;;;9.35;50.40;98920.63;7684982;32;38165;-81
2024/01/02 15:17:00;;;;;;;6.50;3.72;;;;;;;9.35;50.53;98907.81;7682980;32;39073;-81
2024/01/02 15:21:43;;;;;;;8.07;3.73;;;;;;;9.39;50.79;98911.56;7684830;32;39799;-81
2024/01/02 15:26:17;;;;;;;6.10;3.22;;;;;;;9.43;51.11;98900.94;7684055;32;38486;-81
2024/01/02 15:30:44;;;;;;;6.35;2.97;;;;;;;9.36;51.03;98908.63;7684145;32;37819;-81
2024/01/02 15:35:07;;;;;;;5.05;3.00;;;;;;;9.77;50.27;98903.59;7684995;32;39107;-81
2024/01/02 15:39:29;;;;;;;3.75;2.70;;;;;;;9.27;51.48;98900.25;7684966;32;40619;-81
2024/01/02 15:44:01;;;;;;;5.53;3.17;;;;;;;9.26;51.42;98893.22;7683799;32;37784;-81
2024/01/02 15:48:30;;;;;;;5.28;2.78;;;;;;;9.43;51.16;98905.56;7683842;32;37154;-81
2024/01/02 15:52:55;;;;;;;7.07;3.80;;;;;;;9.50;51.82;98916.94;7684399;32;40017;-81
2024/01/02 15:57:14;;;;;;;6.15;3.08;;;;;;;9.36;51.27;98914.88;7684848;32;39966;-81
2024/01/02 16:01:32;;;;;;;5.62;3.37;;;;;;;8.99;51.76;98915.44;7684570;32;36977;-81
2024/01/02 16:06:26;;;;;;;4.40;3.20;;;;;;;8.50;53.71;98913.53;7684746;32;36256;-81
2024/01/02 16:10:51;;;;;;;6.32;3.65;;;;;;;9.37;51.65;98911.06;7684839;32;39364;-82
2024/01/02 16:15:25;;;;;;;5.85;3.20;;;;;;;9.37;51.71;98916.50;7683276;32;40819;-81
2024/01/02 16:20:01;;;;;;;7.47;3.80;;;;;;;8.09;54.95;98922.66;7684417;32;38546;-81
2024/01/02 16:24:40;;;;;;;5.18;3.53;;;;;;;8.87;53.57;98923.94;7683265;32;37253;-80
2024/01/02 16:29:16;;;;;;;7.10;4.05;;;;;;;8.47;54.98;98923.09;7683338;32;39163;-81
2024/01/02 16:33:53;;;;;;;6.35;3.80;;;;;;;9.01;53.45;98913.25;7684118;32;40045;-81
2024/01/02 16:38:10;;;;;;;10.35;4.95;;;;;;;9.33;52.18;98904.56;7683987;32;38590;-81
2024/01/02 16:42:27;;;;;;;8.80;4.43;;;;;;;8.93;53.16;98909.22;7683939;32;37690;-81
2024/01/02 16:46:44;;;;;;;7.47;3.90;;;;;;;9.38;51.99;98895.53;7683921;32;39455;-81
2024/01/02 16:51:01;;;;;;;7.97;3.65;;;;;;;8.77;53.86;98892.19;7682710;32;39996;-81
2024/01/02 16:55:19;;;;;;;5.95;4.12;;;;;;;8.95;53.94;98898.06;7683659;32;37751;-81
2024/01/02 16:59:36;;;;;;;6.85;4.00;;;;;;;7.89;57.58;98902.63;7682524;32;37183;-81
2024/01/02 17:03:52;;;;;;;7.18;4.18;;;;;;;8.54;55.79;98888.28;7691714;32;39843;-80
2024/01/02 17:08:09;;;;;;;7.10;3.87;;;;;;;8.07;57.25;98878.66;7712457;32;40785;-81
2024/01/02 17:12:35;;;;;;;7.53;4.22;;;;;;;8.35;56.48;98870.97;7681399;32;37993;-80
2024/01/02 17:16:51;;;;;;;7.07;4.35;;;;;;;8.68;55.41;98872.16;7686660;32;37792;-81
2024/01/02 17:21:08;;;;;;;9.05;4.78;;;;;;;8.87;55.27;98869.59;7685382;32;40035;-81
2024/01/02 17:25:28;;;;;;;8.52;4.05;;;;;;;8.16;56.98;98877.03;7686577;32;40518;-80
2024/01/02 17:29:46;;;;;;;8.25;4.60;;;;;;;8.64;55.63;98861.03;7686410;32;37872;-81
2024/01/02 17:34:11;;;;;;;9.65;4.90;;;;;;;7.93;57.80;98861.34;7707085;32;38637;-81
2024/01/02 17:38:28;;;;;;;8.05;4.82;;;;;;;8.04;57.41;98846.66;7699733;32;39286;-80
2024/01/02 17:42:44;;;;;;;8.05;4.97;;;;;;;8.27;56.96;98843.28;7707233;32;39708;-81
2024/01/02 17:47:01;;;;;;;7.03;4.65;;;;;;;8.40;56.47;98825.56;7697816;32;38555;-80
2024/01/02 17:51:18;;;;;;;7.45;5.30;;;;;;;8.38;56.72;98827.75;7689727;32;37072;-80
2024/01/02 17:55:35;;;;;;;8.75;5.20;;;;;;;8.60;56.22;98818.41;7684197;32;39919;-79
2024/01/02 17:59:59;;;;;;;10.57;4.65;;;;;;;8.11;57.08;98805.66;7690786;32;40791;-80
2024/01/02 18:04:58;;;;;;;8.80;5.07;;;;;;;8.42;56.36;98793.53;7711244;32;39108;-79
2024/01/02 18:09:30;;;;;;;8.70;4.68;;;;;;;8.30;56.97;98793.03;7712454;32;37806;-78
2024/01/02 18:14:13;;;;;;;8.85;4.93;;;;;;;8.30;56.52;98792.25;7684545;32;39083;-81
2024/01/02 18:18:51;;;;;;;10.20;5.72;;;;;;;8.08;57.18;98793.44;7685319;32;40766;-80
2024/01/02 18:23:15;;;;;;;12.50;5.28;;;;;;;7.91;57.21;98796.50;7711967;32;37752;-81
2024/01/02 18:28:03;;;;;;;10.65;5.12;;;;;;;8.29;56.42;98805.00;7698343;32;37232;-79
2024/01/02 18:32:41;;;;;;;11.02;5.87;;;;;;;7.60;58.44;98810.19;7712054;32;39952;-79
2024/01/02 18:37:26;;;;;;;12.63;5.75;;;;;;;6.90;60.26;98797.31;7698196;32;40007;-80
2024/01/02 18:41:53;;;;;;;10.20;5.75;;;;;;;7.14;60.31;98791.31;7685087;32;37627;-79
2024/01/02 18:46:15;;;;;;;11.07;5.70;;;;;;;6.63;61.84;98791.34;7684925;32;37098;-79
2024/01/02 18:50:34;;;;;;;11.38;5.78;;;;;;;6.55;62.32;98784.56;7685067;32;40172;-79
2024/01/02 18:54:53;;;;;;;11.07;6.25;;;;;;;6.57;62.38;98787.81;7684626;32;39938;-79
2024/01/02 18:59:11;;;;;;;11.65;6.43;;;;;;;6.66;62.31;98769.16;7685437;32;37949;-80
2024/01/02 19:03:27;;;;;;;10.43;6.40;;;;;;;7.19;60.51;98760.66;7704122;32;37413;-81
2024/01/02 19:08:12;;;;;;;12.70;7.12;;;;;;;7.06;60.92;98754.72;7687842;32;40153;-78
2024/01/02 19:12:29;;;;;;;14.48;7.37;;;;;;;7.17;60.44;98747.38;7718053;32;40975;-79
2024/01/02 19:16:45;;;;;;;12.40;6.45;;;;;;;7.50;59.71;98734.25;7684157;32;38755;-79
2024/01/02 19:21:02;;;;;;;11.93;6.60;;;;;;;7.55;59.25;98734.25;7683863;32;37891;-80
2024/01/02 19:25:20;;;;;;;10.10;6.53;;;;;;;7.83;58.65;98716.50;7683335;32;40067;-80
2024/01/02 19:29:37;;;;;;;10.27;5.90;;;;;;;7.93;58.13;98712.09;7685154;32;38900;-80
2024/01/02 19:33:56;;;;;;;13.07;6.18;;;;;;;7.68;58.57;98708.44;7684930;32;38667;-80
2024/01/02 19:38:14;;;;;;;9.90;5.60;;;;;;;8.11;57.35;98703.31;7685117;32;37121;-80
2024/01/02 19:42:30;;;;;;;19.58;10.80;;;;;;;7.87;57.51;98701.28;7694410;32;37376;-79
2024/01/02 19:46:50;;;;;;;11.85;6.50;;;;;;;8.23;57.07;98698.31;7684935;32;40943;-80
2024/01/02 19:51:06;;;;;;;11.93;6.30;;;;;;;8.33;56.70;98697.44;7684843;32;37560;-80
2024/01/02 19:55:23;;;;;;;13.07;6.05;;;;;;;8.19;56.72;98694.56;7684757;32;37103;-80
2024/01/02 19:59:40;;;;;;;9.82;5.60;;;;;;;8.14;56.87;98689.16;7687918;32;39459;-79
2024/01/02 20:03:59;;;;;;;9.50;5.40;;;;;;;8.49;55.92;98673.72;7711069;32;39972;-80
2024/01/02 20:08:22;;;;;;;9.40;5.60;;;;;;;8.39;56.12;98673.75;7711285;32;37028;-80
2024/01/02 20:13:11;;;;;;;10.33;5.53;;;;;;;8.58;55.56;98674.69;7711168;32;37132;-80
2024/01/02 20:17:28;;;;;;;10.23;5.72;;;;;;;8.53;55.49;98657.66;7686985;32;40003;-80
2024/01/02 20:21:44;;;;;;;10.70;5.75;;;;;;;8.88;54.77;98637.44;7710996;32;39637;-79
2024/01/02 20:26:06;;;;;;;17.33;9.50;;;;;;;8.69;55.36;98622.97;7710472;32;38816;-79
2024/01/02 20:30:22;;;;;;;9.35;5.68;;;;;;;8.62;55.80;98618.72;7710914;32;37148;-80
2024/01/02 20:34:48;;;;;;;10.77;5.53;;;;;;;8.11;56.88;98624.56;7710684;32;39039;-80
2024/01/02 20:39:16;;;;;;;9.75;5.50;;;;;;;8.25;56.25;98614.66;7697603;32;40018;-80